sensor_id;sensor_type;location;lat;lon;timestamp;pressure;altitude;pressure_sealevel;temperature;humidity
64632;BME280;58358;50.936;0.246;2024-03-02T00:00:14;98644.86;;;5.13;100.00
64632;BME280;58358;50.936;0.246;2024-03-02T00:02:40;98642.58;;;4.61;100.00
64632;BME280;58358;50.936;0.246;2024-03-02T00:05:06;98643.50;;;4.47;100.00
64632;BME280;58358;50.936;0.246;2024-03-02T00:07:31;98643.27;;;4.04;100.00
64632;BME280;58358;50.936;0.246;2024-03-02T00:09:57;98646.63;;;4.21;100.00
64632;BME280;58358;50.936;0.246;2024-03-02T00:12:23;98644.18;;;3.48;100.00
64632;BME280;58358;50.936;0.246;2024-03-02T00:14:49;98643.52;;;3.24;100.00
64632;BME280;58358;50.936;0.246;2024-03-02T00:17:21;98641.55;;;3.23;100.00
64632;BME280;58358;50.936;0.246;2024-03-02T00:19:40;98646.22;;;2.85;100.00
64632;BME280;58358;50.936;0.246;2024-03-02T00:22:07;98649.94;;;3.50;100.00
64632;BME280;58358;50.936;0.246;2024-03-02T00:24:33;98653.53;;;3.46;100.00
64632;BME280;58358;50.936;0.246;2024-03-02T00:26:59;98653.24;;;3.65;100.00
64632;BME280;58358;50.936;0.246;2024-03-02T00:29:22;98654.01;;;2.89;100.00
64632;BME280;58358;50.936;0.246;2024-03-02T00:31:48;98646.71;;;3.78;100.00
64632;BME280;58358;50.936;0.246;2024-03-02T00:34:13;98648.97;;;4.09;100.00
64632;BME280;58358;50.936;0.246;2024-03-02T00:36:39;98644.77;;;3.26;100.00
64632;BME280;58358;50.936;0.246;2024-03-02T00:39:04;98651.06;;;4.85;100.00
64632;BME280;58358;50.936;0.246;2024-03-02T00:41:31;98650.84;;;4.22;100.00
64632;BME280;58358;50.936;0.246;2024-03-02T00:43:58;98640.92;;;3.54;100.00
64632;BME280;58358;50.936;0.246;2024-03-02T00:46:22;98638.08;;;3.24;100.00
64632;BME280;58358;50.936;0.246;2024-03-02T00:48:53;98642.13;;;2.76;100.00
64632;BME280;58358;50.936;0.246;2024-03-02T00:51:13;98640.10;;;2.38;100.00
64632;BME280;58358;50.936;0.246;2024-03-02T00:53:39;98634.48;;;3.43;100.00
64632;BME280;58358;50.936;0.246;2024-03-02T00:56:09;98635.53;;;3.04;100.00
64632;BME280;58358;50.936;0.246;2024-03-02T00:58:30;98639.01;;;4.48;100.00
64632;BME280;58358;50.936;0.246;2024-03-02T01:00:56;98631.99;;;4.57;100.00
64632;BME280;58358;50.936;0.246;2024-03-02T01:03:21;98634.48;;;4.22;100.00
64632;BME280;58358;50.936;0.246;2024-03-02T01:05:47;98632.69;;;4.25;100.00
64632;BME280;58358;50.936;0.246;2024-03-02T01:08:13;98631.44;;;4.54;100.00
64632;BME280;58358;50.936;0.246;2024-03-02T01:10:39;98633.81;;;4.39;100.00
64632;BME280;58358;50.936;0.246;2024-03-02T01:13:05;98635.94;;;4.63;100.00
64632;BME280;58358;50.936;0.246;2024-03-02T01:15:31;98642.98;;;4.45;100.00
64632;BME280;58358;50.936;0.246;2024-03-02T01:17:57;98636.24;;;3.24;100.00
64632;BME280;58358;50.936;0.246;2024-03-02T01:20:22;98640.01;;;3.73;100.00
64632;BME280;58358;50.936;0.246;2024-03-02T01:22:47;98633.09;;;4.47;100.00
64632;BME280;58358;50.936;0.246;2024-03-02T01:25:13;98631.64;;;2.97;100.00
64632;BME280;58358;50.936;0.246;2024-03-02T01:27:38;98637.81;;;3.93;100.00
64632;BME280;58358;50.936;0.246;2024-03-02T01:30:05;98636.38;;;4.40;100.00
64632;BME280;58358;50.936;0.246;2024-03-02T01:32:30;98626.40;;;3.47;100.00
64632;BME280;58358;50.936;0.246;2024-03-02T01:34:56;98626.18;;;3.81;100.00
64632;BME280;58358;50.936;0.246;2024-03-02T01:37:21;98625.38;;;3.89;100.00
64632;BME280;58358;50.936;0.246;2024-03-02T01:39:46;98624.89;;;2.89;100.00
64632;BME280;58358;50.936;0.246;2024-03-02T01:42:12;98619.71;;;2.78;100.00
64632;BME280;58358;50.936;0.246;2024-03-02T01:44:37;98619.54;;;3.52;100.00
64632;BME280;58358;50.936;0.246;2024-03-02T01:47:03;98624.62;;;3.70;100.00
64632;BME280;58358;50.936;0.246;2024-03-02T01:49:29;98623.85;;;3.68;100.00
64632;BME280;58358;50.936;0.246;2024-03-02T01:51:55;98627.80;;;3.77;100.00
64632;BME280;58358;50.936;0.246;2024-03-02T01:54:21;98630.42;;;3.52;100.00
64632;BME280;58358;50.936;0.246;2024-03-02T01:56:45;98626.22;;;4.73;100.00
64632;BME280;58358;50.936;0.246;2024-03-02T01:59:11;98626.17;;;4.59;100.00
64632;BME280;58358;50.936;0.246;2024-03-02T02:01:36;98627.08;;;4.22;100.00
64632;BME280;58358;50.936;0.246;2024-03-02T02:04:03;98634.46;;;3.59;100.00
64632;BME280;58358;50.936;0.246;2024-03-02T02:06:27;98633.05;;;3.65;100.00
64632;BME280;58358;50.936;0.246;2024-03-02T02:08:53;98629.83;;;3.22;100.00
64632;BME280;58358;50.936;0.246;2024-03-02T02:11:18;98632.45;;;2.97;100.00
64632;BME280;58358;50.936;0.246;2024-03-02T02:13:44;98622.37;;;3.79;100.00
64632;BME280;58358;50.936;0.246;2024-03-02T02:16:09;98618.99;;;4.32;100.00
64632;BME280;58358;50.936;0.246;2024-03-02T02:18:34;98622.38;;;3.60;100.00
64632;BME280;58358;50.936;0.246;2024-03-02T02:20:59;98618.64;;;3.30;100.00
64632;BME280;58358;50.936;0.246;2024-03-02T02:23:25;98614.79;;;4.07;100.00
64632;BME280;58358;50.936;0.246;2024-03-02T02:25:50;98612.99;;;4.64;100.00
64632;BME280;58358;50.936;0.246;2024-03-02T02:28:16;98606.43;;;4.98;100.00
64632;BME280;58358;50.936;0.246;2024-03-02T02:30:41;98609.59;;;4.47;100.00
64632;BME280;58358;50.936;0.246;2024-03-02T02:33:07;98606.51;;;3.90;100.00
64632;BME280;58358;50.936;0.246;2024-03-02T02:35:32;98602.32;;;4.59;100.00
64632;BME280;58358;50.936;0.246;2024-03-02T02:37:58;98595.76;;;4.25;100.00
64632;BME280;58358;50.936;0.246;2024-03-02T02:40:23;98591.02;;;3.23;100.00
64632;BME280;58358;50.936;0.246;2024-03-02T02:42:49;98594.38;;;3.53;100.00
64632;BME280;58358;50.936;0.246;2024-03-02T02:45:15;98587.74;;;3.36;100.00
64632;BME280;58358;50.936;0.246;2024-03-02T02:47:41;98587.16;;;4.07;100.00
64632;BME280;58358;50.936;0.246;2024-03-02T02:50:08;98584.60;;;4.02;100.00
64632;BME280;58358;50.936;0.246;2024-03-02T02:52:32;98583.14;;;3.53;100.00
64632;BME280;58358;50.936;0.246;2024-03-02T02:54:57;98578.71;;;3.47;100.00
64632;BME280;58358;50.936;0.246;2024-03-02T02:57:22;98577.87;;;3.88;100.00
64632;BME280;58358;50.936;0.246;2024-03-02T02:59:47;98578.83;;;3.31;100.00
64632;BME280;58358;50.936;0.246;2024-03-02T03:02:13;98576.04;;;2.66;100.00
64632;BME280;58358;50.936;0.246;2024-03-02T03:04:40;98570.69;;;3.73;100.00
64632;BME280;58358;50.936;0.246;2024-03-02T03:07:04;98569.88;;;3.59;100.00
64632;BME280;58358;50.936;0.246;2024-03-02T03:09:29;98568.45;;;2.47;100.00
64632;BME280;58358;50.936;0.246;2024-03-02T03:11:55;98560.13;;;3.60;100.00
64632;BME280;58358;50.936;0.246;2024-03-02T03:14:20;98561.96;;;3.49;100.00
64632;BME280;58358;50.936;0.246;2024-03-02T03:16:46;98558.36;;;3.23;100.00
64632;BME280;58358;50.936;0.246;2024-03-02T03:19:10;98556.51;;;2.93;100.00
64632;BME280;58358;50.936;0.246;2024-03-02T03:21:36;98555.00;;;3.00;100.00
64632;BME280;58358;50.936;0.246;2024-03-02T03:24:03;98555.18;;;3.40;100.00
64632;BME280;58358;50.936;0.246;2024-03-02T03:26:28;98549.76;;;2.36;100.00
64632;BME280;58358;50.936;0.246;2024-03-02T03:28:54;98549.22;;;3.01;100.00
64632;BME280;58358;50.936;0.246;2024-03-02T03:31:19;98547.85;;;2.98;100.00
64632;BME280;58358;50.936;0.246;2024-03-02T03:33:44;98547.59;;;3.12;100.00
64632;BME280;58358;50.936;0.246;2024-03-02T03:36:09;98542.05;;;2.94;100.00
64632;BME280;58358;50.936;0.246;2024-03-02T03:38:35;98544.40;;;3.40;100.00
64632;BME280;58358;50.936;0.246;2024-03-02T03:41:00;98536.73;;;3.47;100.00
64632;BME280;58358;50.936;0.246;2024-03-02T03:43:26;98530.76;;;3.47;100.00
64632;BME280;58358;50.936;0.246;2024-03-02T03:45:51;98526.14;;;2.80;100.00
64632;BME280;58358;50.936;0.246;2024-03-02T03:48:17;98527.76;;;4.10;100.00
64632;BME280;58358;50.936;0.246;2024-03-02T03:50:42;98523.87;;;4.05;100.00
64632;BME280;58358;50.936;0.246;2024-03-02T03:53:08;98523.36;;;4.00;100.00
64632;BME280;58358;50.936;0.246;2024-03-02T03:55:33;98516.95;;;3.73;100.00
64632;BME280;58358;50.936;0.246;2024-03-02T03:57:58;98520.71;;;3.32;100.00
64632;BME280;58358;50.936;0.246;2024-03-02T04:00:24;98513.35;;;3.87;100.00
64632;BME280;58358;50.936;0.246;2024-03-02T04:02:50;98518.32;;;3.88;100.00
64632;BME280;58358;50.936;0.246;2024-03-02T04:05:16;98510.51;;;4.30;100.00
64632;BME280;58358;50.936;0.246;2024-03-02T04:07:42;98507.16;;;3.71;100.00
64632;BME280;58358;50.936;0.246;2024-03-02T04:10:09;98510.30;;;3.76;100.00
64632;BME280;58358;50.936;0.246;2024-03-02T04:12:34;98514.48;;;3.85;100.00
64632;BME280;58358;50.936;0.246;2024-03-02T04:14:59;98505.01;;;4.19;100.00
64632;BME280;58358;50.936;0.246;2024-03-02T04:17:25;98501.47;;;2.84;100.00
64632;BME280;58358;50.936;0.246;2024-03-02T04:19:51;98501.48;;;2.81;100.00
64632;BME280;58358;50.936;0.246;2024-03-02T04:22:16;98503.40;;;2.78;100.00
64632;BME280;58358;50.936;0.246;2024-03-02T04:24:42;98490.05;;;2.76;100.00
64632;BME280;58358;50.936;0.246;2024-03-02T04:27:07;98494.27;;;2.99;100.00
64632;BME280;58358;50.936;0.246;2024-03-02T04:29:32;98502.98;;;2.88;100.00
64632;BME280;58358;50.936;0.246;2024-03-02T04:31:58;98500.08;;;2.82;100.00
64632;BME280;58358;50.936;0.246;2024-03-02T04:34:24;98504.25;;;2.11;100.00
64632;BME280;58358;50.936;0.246;2024-03-02T04:36:49;98490.46;;;2.39;100.00
64632;BME280;58358;50.936;0.246;2024-03-02T04:39:15;98497.68;;;2.52;100.00
64632;BME280;58358;50.936;0.246;2024-03-02T04:41:41;98501.67;;;1.95;100.00
64632;BME280;58358;50.936;0.246;2024-03-02T04:44:07;98494.49;;;2.28;100.00
64632;BME280;58358;50.936;0.246;2024-03-02T04:46:32;98484.97;;;2.15;100.00
64632;BME280;58358;50.936;0.246;2024-03-02T04:48:58;98484.83;;;1.91;100.00
64632;BME280;58358;50.936;0.246;2024-03-02T04:51:24;98473.90;;;2.54;100.00
64632;BME280;58358;50.936;0.246;2024-03-02T04:53:49;98471.23;;;2.37;100.00
64632;BME280;58358;50.936;0.246;2024-03-02T04:56:15;98484.38;;;2.95;100.00
64632;BME280;58358;50.936;0.246;2024-03-02T04:58:40;98478.58;;;2.62;100.00
64632;BME280;58358;50.936;0.246;2024-03-02T05:01:06;98480.60;;;2.18;100.00
64632;BME280;58358;50.936;0.246;2024-03-02T05:03:31;98471.15;;;2.53;100.00
64632;BME280;58358;50.936;0.246;2024-03-02T05:05:56;98464.65;;;2.76;100.00
64632;BME280;58358;50.936;0.246;2024-03-02T05:08:21;98475.30;;;2.32;100.00
64632;BME280;58358;50.936;0.246;2024-03-02T05:10:47;98481.74;;;2.67;100.00
64632;BME280;58358;50.936;0.246;2024-03-02T05:13:12;98471.54;;;2.26;100.00
64632;BME280;58358;50.936;0.246;2024-03-02T05:15:38;98476.80;;;2.91;100.00
64632;BME280;58358;50.936;0.246;2024-03-02T05:18:03;98476.34;;;2.75;100.00
64632;BME280;58358;50.936;0.246;2024-03-02T05:20:29;98479.28;;;2.56;100.00
64632;BME280;58358;50.936;0.246;2024-03-02T05:22:56;98475.84;;;3.25;100.00
64632;BME280;58358;50.936;0.246;2024-03-02T05:25:20;98469.04;;;3.58;100.00
64632;BME280;58358;50.936;0.246;2024-03-02T05:27:46;98458.81;;;3.39;100.00
64632;BME280;58358;50.936;0.246;2024-03-02T05:30:12;98464.02;;;2.80;100.00
64632;BME280;58358;50.936;0.246;2024-03-02T05:32:37;98460.36;;;2.76;100.00
64632;BME280;58358;50.936;0.246;2024-03-02T05:35:04;98462.77;;;3.10;100.00
64632;BME280;58358;50.936;0.246;2024-03-02T05:37:29;98467.04;;;2.83;100.00
64632;BME280;58358;50.936;0.246;2024-03-02T05:39:54;98464.73;;;2.95;100.00
64632;BME280;58358;50.936;0.246;2024-03-02T05:42:30;98464.61;;;3.09;100.00
64632;BME280;58358;50.936;0.246;2024-03-02T05:44:45;98465.16;;;2.78;100.00
64632;BME280;58358;50.936;0.246;2024-03-02T05:47:11;98468.39;;;2.91;100.00
64632;BME280;58358;50.936;0.246;2024-03-02T05:49:37;98461.43;;;3.02;100.00
64632;BME280;58358;50.936;0.246;2024-03-02T05:52:03;98462.88;;;3.70;100.00
64632;BME280;58358;50.936;0.246;2024-03-02T05:54:28;98462.14;;;2.70;100.00
64632;BME280;58358;50.936;0.246;2024-03-02T05:56:54;98459.77;;;3.26;100.00
64632;BME280;58358;50.936;0.246;2024-03-02T05:59:19;98452.31;;;2.20;100.00
64632;BME280;58358;50.936;0.246;2024-03-02T06:01:46;98458.22;;;2.70;100.00
64632;BME280;58358;50.936;0.246;2024-03-02T06:04:11;98452.46;;;2.91;100.00
64632;BME280;58358;50.936;0.246;2024-03-02T06:06:37;98454.17;;;2.78;100.00
64632;BME280;58358;50.936;0.246;2024-03-02T06:09:04;98453.43;;;2.62;100.00
64632;BME280;58358;50.936;0.246;2024-03-02T06:11:28;98446.96;;;2.32;100.00
64632;BME280;58358;50.936;0.246;2024-03-02T06:13:54;98450.58;;;3.41;100.00
64632;BME280;58358;50.936;0.246;2024-03-02T06:16:19;98455.52;;;3.06;100.00
64632;BME280;58358;50.936;0.246;2024-03-02T06:18:45;98457.05;;;2.71;100.00
64632;BME280;58358;50.936;0.246;2024-03-02T06:21:11;98455.85;;;2.71;100.00
64632;BME280;58358;50.936;0.246;2024-03-02T06:23:37;98457.59;;;3.07;100.00
64632;BME280;58358;50.936;0.246;2024-03-02T06:26:03;98458.43;;;2.55;100.00
64632;BME280;58358;50.936;0.246;2024-03-02T06:28:29;98461.30;;;2.33;100.00
64632;BME280;58358;50.936;0.246;2024-03-02T06:30:54;98472.92;;;2.38;100.00
64632;BME280;58358;50.936;0.246;2024-03-02T06:33:20;98468.39;;;1.85;100.00
64632;BME280;58358;50.936;0.246;2024-03-02T06:35:46;98463.53;;;2.91;100.00
64632;BME280;58358;50.936;0.246;2024-03-02T06:38:12;98452.35;;;3.08;100.00
64632;BME280;58358;50.936;0.246;2024-03-02T06:40:38;98459.46;;;2.57;100.00
64632;BME280;58358;50.936;0.246;2024-03-02T06:43:04;98462.61;;;2.38;100.00
64632;BME280;58358;50.936;0.246;2024-03-02T06:45:29;98467.83;;;3.29;100.00
64632;BME280;58358;50.936;0.246;2024-03-02T06:47:55;98469.15;;;2.54;100.00
64632;BME280;58358;50.936;0.246;2024-03-02T06:50:21;98468.14;;;2.29;100.00
64632;BME280;58358;50.936;0.246;2024-03-02T06:52:46;98476.20;;;1.61;100.00
64632;BME280;58358;50.936;0.246;2024-03-02T06:55:13;98477.31;;;2.12;100.00
64632;BME280;58358;50.936;0.246;2024-03-02T06:57:38;98469.53;;;2.80;100.00
64632;BME280;58358;50.936;0.246;2024-03-02T07:00:05;98472.11;;;3.45;100.00
64632;BME280;58358;50.936;0.246;2024-03-02T07:02:30;98473.38;;;2.68;100.00
64632;BME280;58358;50.936;0.246;2024-03-02T07:04:56;98474.48;;;3.61;100.00
64632;BME280;58358;50.936;0.246;2024-03-02T07:07:21;98467.91;;;2.77;100.00
64632;BME280;58358;50.936;0.246;2024-03-02T07:09:47;98476.23;;;2.77;100.00
64632;BME280;58358;50.936;0.246;2024-03-02T07:12:13;98479.42;;;3.96;100.00
64632;BME280;58358;50.936;0.246;2024-03-02T07:14:39;98478.16;;;3.68;100.00
64632;BME280;58358;50.936;0.246;2024-03-02T07:17:05;98485.09;;;3.12;100.00
64632;BME280;58358;50.936;0.246;2024-03-02T07:19:30;98488.66;;;3.98;100.00
64632;BME280;58358;50.936;0.246;2024-03-02T07:21:56;98490.39;;;2.76;100.00
64632;BME280;58358;50.936;0.246;2024-03-02T07:24:22;98486.65;;;3.41;100.00
64632;BME280;58358;50.936;0.246;2024-03-02T07:26:48;98490.63;;;1.96;100.00
64632;BME280;58358;50.936;0.246;2024-03-02T07:29:13;98497.40;;;3.12;100.00
64632;BME280;58358;50.936;0.246;2024-03-02T07:31:38;98495.88;;;3.26;100.00
64632;BME280;58358;50.936;0.246;2024-03-02T07:34:04;98496.12;;;2.86;100.00
64632;BME280;58358;50.936;0.246;2024-03-02T07:36:30;98500.82;;;2.79;100.00
64632;BME280;58358;50.936;0.246;2024-03-02T07:38:56;98501.79;;;3.21;100.00
64632;BME280;58358;50.936;0.246;2024-03-02T07:41:21;98502.43;;;2.75;100.00
64632;BME280;58358;50.936;0.246;2024-03-02T07:43:47;98495.84;;;3.17;100.00
64632;BME280;58358;50.936;0.246;2024-03-02T07:46:13;98495.59;;;2.72;100.00
64632;BME280;58358;50.936;0.246;2024-03-02T07:48:39;98511.30;;;2.59;100.00
64632;BME280;58358;50.936;0.246;2024-03-02T07:51:05;98497.31;;;2.02;100.00
64632;BME280;58358;50.936;0.246;2024-03-02T07:53:30;98498.90;;;2.79;100.00
64632;BME280;58358;50.936;0.246;2024-03-02T07:55:56;98504.12;;;2.83;100.00
64632;BME280;58358;50.936;0.246;2024-03-02T07:58:22;98504.85;;;2.52;100.00
64632;BME280;58358;50.936;0.246;2024-03-02T08:00:48;98510.69;;;2.58;100.00
64632;BME280;58358;50.936;0.246;2024-03-02T08:03:14;98516.38;;;2.55;100.00
64632;BME280;58358;50.936;0.246;2024-03-02T08:05:40;98521.36;;;2.74;100.00
64632;BME280;58358;50.936;0.246;2024-03-02T08:08:06;98518.43;;;2.35;100.00
64632;BME280;58358;50.936;0.246;2024-03-02T08:10:31;98518.10;;;3.08;100.00
64632;BME280;58358;50.936;0.246;2024-03-02T08:12:57;98516.29;;;3.74;100.00
64632;BME280;58358;50.936;0.246;2024-03-02T08:15:23;98528.26;;;3.65;100.00
64632;BME280;58358;50.936;0.246;2024-03-02T08:17:49;98525.54;;;3.68;100.00
64632;BME280;58358;50.936;0.246;2024-03-02T08:20:15;98529.48;;;3.71;100.00
64632;BME280;58358;50.936;0.246;2024-03-02T08:22:40;98529.26;;;4.05;100.00
64632;BME280;58358;50.936;0.246;2024-03-02T08:25:07;98532.88;;;3.52;100.00
64632;BME280;58358;50.936;0.246;2024-03-02T08:27:32;98534.05;;;2.78;100.00
64632;BME280;58358;50.936;0.246;2024-03-02T08:29:58;98533.59;;;3.03;100.00
64632;BME280;58358;50.936;0.246;2024-03-02T08:32:23;98536.36;;;3.55;100.00
64632;BME280;58358;50.936;0.246;2024-03-02T08:34:49;98551.49;;;2.73;100.00
64632;BME280;58358;50.936;0.246;2024-03-02T08:37:15;98543.77;;;2.53;100.00
64632;BME280;58358;50.936;0.246;2024-03-02T08:39:41;98540.20;;;2.45;100.00
64632;BME280;58358;50.936;0.246;2024-03-02T08:42:06;98537.93;;;2.11;100.00
64632;BME280;58358;50.936;0.246;2024-03-02T08:44:32;98544.57;;;3.15;100.00
64632;BME280;58358;50.936;0.246;2024-03-02T08:46:58;98546.08;;;2.71;100.00
64632;BME280;58358;50.936;0.246;2024-03-02T08:49:23;98545.65;;;3.44;100.00
64632;BME280;58358;50.936;0.246;2024-03-02T08:51:49;98545.58;;;4.08;100.00
64632;BME280;58358;50.936;0.246;2024-03-02T08:54:15;98547.82;;;3.49;100.00
64632;BME280;58358;50.936;0.246;2024-03-02T08:56:41;98547.64;;;3.54;100.00
64632;BME280;58358;50.936;0.246;2024-03-02T08:59:07;98547.09;;;3.95;100.00
64632;BME280;58358;50.936;0.246;2024-03-02T09:01:33;98551.83;;;4.02;100.00
64632;BME280;58358;50.936;0.246;2024-03-02T09:03:58;98553.33;;;3.92;100.00
64632;BME280;58358;50.936;0.246;2024-03-02T09:06:24;98559.97;;;3.28;100.00
64632;BME280;58358;50.936;0.246;2024-03-02T09:08:50;98554.20;;;3.62;100.00
64632;BME280;58358;50.936;0.246;2024-03-02T09:11:16;98557.72;;;3.15;100.00
64632;BME280;58358;50.936;0.246;2024-03-02T09:13:42;98557.94;;;3.30;100.00
64632;BME280;58358;50.936;0.246;2024-03-02T09:16:08;98555.00;;;3.40;100.00
64632;BME280;58358;50.936;0.246;2024-03-02T09:18:33;98573.70;;;2.43;100.00
64632;BME280;58358;50.936;0.246;2024-03-02T09:20:59;98569.15;;;2.42;100.00
64632;BME280;58358;50.936;0.246;2024-03-02T09:23:25;98562.56;;;2.40;100.00
64632;BME280;58358;50.936;0.246;2024-03-02T09:25:51;98565.08;;;2.63;100.00
64632;BME280;58358;50.936;0.246;2024-03-02T09:28:17;98564.70;;;3.70;100.00
64632;BME280;58358;50.936;0.246;2024-03-02T09:30:42;98566.22;;;4.03;100.00
64632;BME280;58358;50.936;0.246;2024-03-02T09:33:08;98560.87;;;3.57;100.00
64632;BME280;58358;50.936;0.246;2024-03-02T09:35:34;98559.69;;;3.84;100.00
64632;BME280;58358;50.936;0.246;2024-03-02T09:38:00;98571.83;;;4.00;100.00
64632;BME280;58358;50.936;0.246;2024-03-02T09:40:26;98568.16;;;4.66;100.00
64632;BME280;58358;50.936;0.246;2024-03-02T09:42:51;98566.10;;;3.48;100.00
64632;BME280;58358;50.936;0.246;2024-03-02T09:45:20;98571.01;;;3.36;100.00
64632;BME280;58358;50.936;0.246;2024-03-02T09:47:44;98571.59;;;3.82;100.00
64632;BME280;58358;50.936;0.246;2024-03-02T09:50:09;98574.85;;;3.82;100.00
64632;BME280;58358;50.936;0.246;2024-03-02T09:52:35;98576.87;;;4.02;100.00
64632;BME280;58358;50.936;0.246;2024-03-02T09:55:00;98581.38;;;4.22;100.00
64632;BME280;58358;50.936;0.246;2024-03-02T09:57:26;98583.26;;;4.68;100.00
64632;BME280;58358;50.936;0.246;2024-03-02T09:59:52;98587.12;;;3.97;100.00
64632;BME280;58358;50.936;0.246;2024-03-02T10:02:18;98578.65;;;3.92;100.00
64632;BME280;58358;50.936;0.246;2024-03-02T10:04:43;98582.20;;;3.66;100.00
64632;BME280;58358;50.936;0.246;2024-03-02T10:07:11;98581.12;;;3.13;100.00
64632;BME280;58358;50.936;0.246;2024-03-02T10:09:35;98579.15;;;3.41;100.00
64632;BME280;58358;50.936;0.246;2024-03-02T10:12:04;98573.23;;;3.46;100.00
64632;BME280;58358;50.936;0.246;2024-03-02T10:14:26;98581.52;;;3.18;100.00
64632;BME280;58358;50.936;0.246;2024-03-02T10:16:53;98583.07;;;3.02;100.00
64632;BME280;58358;50.936;0.246;2024-03-02T10:19:19;98585.31;;;2.94;100.00
64632;BME280;58358;50.936;0.246;2024-03-02T10:21:44;98590.09;;;3.04;100.00
64632;BME280;58358;50.936;0.246;2024-03-02T10:24:10;98587.87;;;3.27;100.00
64632;BME280;58358;50.936;0.246;2024-03-02T10:26:35;98584.54;;;3.62;100.00
64632;BME280;58358;50.936;0.246;2024-03-02T10:29:01;98590.61;;;3.61;100.00
64632;BME280;58358;50.936;0.246;2024-03-02T10:31:27;98593.77;;;3.07;100.00
64632;BME280;58358;50.936;0.246;2024-03-02T10:33:53;98588.80;;;3.04;100.00
64632;BME280;58358;50.936;0.246;2024-03-02T10:36:19;98600.41;;;3.91;100.00
64632;BME280;58358;50.936;0.246;2024-03-02T10:38:44;98595.12;;;3.28;100.00
64632;BME280;58358;50.936;0.246;2024-03-02T10:41:10;98597.59;;;4.08;100.00
64632;BME280;58358;50.936;0.246;2024-03-02T10:43:37;98600.53;;;3.81;100.00
64632;BME280;58358;50.936;0.246;2024-03-02T10:46:03;98588.62;;;4.62;100.00
64632;BME280;58358;50.936;0.246;2024-03-02T10:48:28;98599.87;;;4.56;100.00
64632;BME280;58358;50.936;0.246;2024-03-02T10:50:53;98597.57;;;4.29;100.00
64632;BME280;58358;50.936;0.246;2024-03-02T10:53:19;98594.73;;;4.00;100.00
64632;BME280;58358;50.936;0.246;2024-03-02T10:55:47;98589.78;;;4.21;100.00
64632;BME280;58358;50.936;0.246;2024-03-02T10:58:12;98590.19;;;4.07;100.00
64632;BME280;58358;50.936;0.246;2024-03-02T11:00:38;98589.06;;;5.15;100.00
64632;BME280;58358;50.936;0.246;2024-03-02T11:03:05;98584.41;;;5.58;100.00
64632;BME280;58358;50.936;0.246;2024-03-02T11:05:31;98586.00;;;4.70;100.00
64632;BME280;58358;50.936;0.246;2024-03-02T11:07:57;98595.79;;;4.09;100.00
64632;BME280;58358;50.936;0.246;2024-03-02T11:10:19;98600.98;;;5.14;100.00
64632;BME280;58358;50.936;0.246;2024-03-02T11:12:50;98591.85;;;4.34;100.00
64632;BME280;58358;50.936;0.246;2024-03-02T11:15:11;98600.42;;;3.82;100.00
64632;BME280;58358;50.936;0.246;2024-03-02T11:17:38;98617.72;;;4.22;100.00
64632;BME280;58358;50.936;0.246;2024-03-02T11:20:04;98631.18;;;2.94;100.00
64632;BME280;58358;50.936;0.246;2024-03-02T11:22:28;98630.60;;;2.65;100.00
64632;BME280;58358;50.936;0.246;2024-03-02T11:24:54;98637.44;;;3.45;100.00
64632;BME280;58358;50.936;0.246;2024-03-02T11:29:46;98635.15;;;3.87;100.00
64632;BME280;58358;50.936;0.246;2024-03-02T11:32:15;98633.10;;;3.34;100.00
64632;BME280;58358;50.936;0.246;2024-03-02T11:34:37;98633.28;;;4.18;100.00
64632;BME280;58358;50.936;0.246;2024-03-02T11:37:04;98630.56;;;3.77;100.00
64632;BME280;58358;50.936;0.246;2024-03-02T11:39:29;98628.60;;;3.99;100.00
64632;BME280;58358;50.936;0.246;2024-03-02T11:41:55;98628.35;;;3.20;100.00
64632;BME280;58358;50.936;0.246;2024-03-02T11:44:20;98629.43;;;3.81;100.00
64632;BME280;58358;50.936;0.246;2024-03-02T11:46:52;98639.42;;;3.28;100.00
64632;BME280;58358;50.936;0.246;2024-03-02T11:49:14;98637.22;;;3.86;100.00
64632;BME280;58358;50.936;0.246;2024-03-02T11:51:38;98636.46;;;4.50;100.00
64632;BME280;58358;50.936;0.246;2024-03-02T11:54:04;98639.17;;;4.68;100.00
64632;BME280;58358;50.936;0.246;2024-03-02T11:56:31;98639.21;;;5.37;100.00
64632;BME280;58358;50.936;0.246;2024-03-02T11:58:54;98636.44;;;5.77;100.00
64632;BME280;58358;50.936;0.246;2024-03-02T12:01:21;98639.42;;;5.96;100.00
64632;BME280;58358;50.936;0.246;2024-03-02T12:03:46;98630.83;;;6.84;100.00
64632;BME280;58358;50.936;0.246;2024-03-02T12:06:13;98628.89;;;5.64;100.00
64632;BME280;58358;50.936;0.246;2024-03-02T12:08:38;98628.55;;;7.25;100.00
64632;BME280;58358;50.936;0.246;2024-03-02T12:11:04;98626.49;;;6.70;100.00
64632;BME280;58358;50.936;0.246;2024-03-02T12:13:29;98620.24;;;7.80;100.00
64632;BME280;58358;50.936;0.246;2024-03-02T12:15:55;98622.06;;;5.97;100.00
64632;BME280;58358;50.936;0.246;2024-03-02T12:18:20;98622.49;;;5.66;100.00
64632;BME280;58358;50.936;0.246;2024-03-02T12:20:48;98620.91;;;6.05;100.00
64632;BME280;58358;50.936;0.246;2024-03-02T12:23:12;98627.16;;;4.86;100.00
64632;BME280;58358;50.936;0.246;2024-03-02T12:25:38;98631.86;;;6.09;100.00
64632;BME280;58358;50.936;0.246;2024-03-02T12:28:08;98649.21;;;4.11;100.00
64632;BME280;58358;50.936;0.246;2024-03-02T12:30:30;98648.89;;;5.22;100.00
64632;BME280;58358;50.936;0.246;2024-03-02T12:32:55;98651.08;;;4.81;100.00
64632;BME280;58358;50.936;0.246;2024-03-02T12:35:21;98654.21;;;5.66;100.00
64632;BME280;58358;50.936;0.246;2024-03-02T12:37:48;98655.67;;;4.99;100.00
64632;BME280;58358;50.936;0.246;2024-03-02T12:40:13;98659.95;;;4.63;100.00
64632;BME280;58358;50.936;0.246;2024-03-02T12:42:38;98663.16;;;4.29;100.00
64632;BME280;58358;50.936;0.246;2024-03-02T12:45:05;98659.41;;;5.62;100.00
64632;BME280;58358;50.936;0.246;2024-03-02T12:47:29;98656.73;;;5.59;100.00
64632;BME280;58358;50.936;0.246;2024-03-02T12:49:55;98660.24;;;5.17;100.00
64632;BME280;58358;50.936;0.246;2024-03-02T12:52:21;98661.58;;;6.49;100.00